Maplewood, West Virginia
Current Conditions -  °F | °C
As of 7:51 PM on Friday 19 Dec 2014 (Local Time) from KBKW Reporting Station
Overcast Overcast  
Wind Chill: 21°   Ceiling: 1000
Heat Index: 26°   Visibility: 10mi
Dew Point: 20°   Wind: 5mph
Humidity: 78%   Direction: 360°N
Pressure: 30.18"   Gusts: NA
Location:  37.8817°N, 80.9739°W
Report Text: KBKW 200051Z AUTO 36004KT 10SM OVC010 M03/M07 A3018 RMK AO2 SLP259 T10331067
Loading
Personal Weather Stations






























Interactive Weather Map New forecast layout! Learn more

10-Day Weather Forecast

Advertisements
Track Severe Weather on mobile